Gallatin Field
KBZN : now visible

Airfield :











YOU CAN JOIN US ON...

 
LOGIN :

Register | Disclaimer

   EN    FR    IT 

 









Legend :    VFR   Marginal VFR   IFR   Intensive IFR   Very Intensive IFR
Visi :
Ceiling :
>= 8 km
>= 3000ft
5 to 8 km
1000 to 3000 ft
1500m to 5 km
500 to 1000 ft
800 to 1500m
200 to 500 ft
< 800m
< 200 ft
Symbols :   Thunderstorms  Fog  Heavy snow  Heavy precipitations  Wind > 20 kt






- Airport Elevation : 4473 ft
- IATA code : BZN


KBZN - Gallatin Field

CURRENT METAR :
  • 010215Z 36010KT 3SM -SN BR BKN019 OVC026 00/M01 A2978 RMK AO2 P0000 T00001011

EXPIRED METARs :
  • 010156Z 35012KT 1/2SM SN FG VV010 00/M01 A2978 RMK AO2 WSHFT 0123 RAE26SNB26 SLP109 P0006 T00001006
  • 010144Z 02015KT 1/4SM SN FG VV009 00/M01 A2976 RMK AO2 WSHFT 0123 RAE26SNB26 P0005 T00001011
  • 010106Z 00000KT 10SM -RA FEW008 OVC026 03/01 A2976 RMK AO2 P0000 T00280011
  • 010056Z 00000KT 10SM -RA BKN032 OVC044 03/01 A2976 RMK AO2 RAE26B51UPB48E51 SLP097 P0001 T00280011
  • 010026Z 20007KT 10SM SCT017 OVC060 03/01 A2975 RMK AO2 RAE26 P0000 T00280011
  • 312356Z 18009KT 7SM -RA FEW009 SCT016 OVC022 03/01 A2975 RMK AO2 RAE22B50UPB22E50 SLP094 P0001 60001 T00280011 10083 20028 53001
  • 312349Z 18009KT 7SM UP SCT009 BKN014 OVC022 03/01 A2975 RMK AO2 RAE22UPB22 P0001 T00280011

TAF KBZN
Valid from the 01 at 02:00 until the 02 at 06:00 UTC


010140Z 0102/0206 02012KT 4SM -SHSN SCT008 BKN015
TEMPO 0102/0104 1/2SM SN FZFG BKN008 OVC015
FM010400 33009KT 6SM -SHRASN BR SCT015 OVC025
TEMPO 0104/0107 4SM -SNRA BR BKN015 OVC025
FM010700 VRB06KT P6SM VCSH SCT015 BKN025
PROB30 0112/0116 4SM -SN BKN015 OVC025
FM011600 VRB06KT P6SM SCT025 OVC050



MET'MAP, your aeronautical weather chart ! - Copyright ORBIFLY December 2007 - Disclaimer

ORBIFLY MET'MAP TEAM :

Programming & Development : Alexandra Zaïnal
Concept & original design : Baudouin d'Aumeries
Assistance for programming : Marc-Olivier Méhu
Technical & hardware support : Manuel Goepfert

Contact : metmap@orbifly.com




SOURCES & CREDITS :

   NOAA       Earth
Advisory